createdAt,value
2023-04-12T00:00:44.419Z,0.00
2023-04-12T00:01:44.439Z,0.00
2023-04-12T00:02:44.506Z,0.00
2023-04-12T00:03:44.506Z,0.00
2023-04-12T00:04:44.549Z,0.00
2023-04-12T00:05:44.361Z,0.00
2023-04-12T00:06:44.353Z,0.00
2023-04-12T00:07:44.343Z,0.00
2023-04-12T00:08:44.340Z,0.00
2023-04-12T00:09:44.321Z,0.00
2023-04-12T00:10:44.332Z,0.00
2023-04-12T00:11:44.305Z,0.00
2023-04-12T00:12:44.326Z,0.00
2023-04-12T00:13:44.276Z,0.00
2023-04-12T00:14:44.272Z,0.00
2023-04-12T00:15:44.292Z,0.00
2023-04-12T00:16:44.279Z,0.00
2023-04-12T00:17:44.282Z,0.00
2023-04-12T00:18:44.236Z,0.00
2023-04-12T00:19:44.214Z,0.00
2023-04-12T00:20:44.214Z,0.00
2023-04-12T00:21:44.198Z,0.00
2023-04-12T00:22:44.201Z,0.00
2023-04-12T00:23:44.182Z,0.00
2023-04-12T00:24:44.165Z,0.00
2023-04-12T00:25:44.155Z,0.00
2023-04-12T00:26:44.140Z,0.00
2023-04-12T00:27:44.138Z,0.00
2023-04-12T00:28:44.165Z,0.00
2023-04-12T00:29:44.125Z,0.00
2023-04-12T00:30:44.182Z,0.00
2023-04-12T00:31:44.125Z,0.00
2023-04-12T00:32:44.137Z,0.00
2023-04-12T00:33:44.065Z,0.00
2023-04-12T00:34:44.081Z,0.00
2023-04-12T00:35:44.093Z,0.00
2023-04-12T00:36:44.057Z,0.00
2023-04-12T00:37:44.025Z,0.00
2023-04-12T00:38:44.014Z,0.00
2023-04-12T00:39:43.995Z,0.00
2023-04-12T00:40:44.028Z,0.00
2023-04-12T00:41:43.976Z,0.00
2023-04-12T00:42:43.978Z,0.00
2023-04-12T00:43:43.959Z,0.00
2023-04-12T00:44:43.972Z,0.00
2023-04-12T00:45:43.936Z,0.00
2023-04-12T00:46:43.970Z,0.00
2023-04-12T00:47:43.949Z,0.00
2023-04-12T00:48:43.913Z,0.00
2023-04-12T00:49:43.899Z,0.00
2023-04-12T00:50:43.889Z,0.00
2023-04-12T00:51:43.870Z,0.00
2023-04-12T00:52:43.892Z,0.00
2023-04-12T00:53:43.847Z,0.00
2023-04-12T00:54:43.840Z,0.00
2023-04-12T00:55:43.831Z,0.00
2023-04-12T00:56:43.816Z,0.00
2023-04-12T00:57:43.810Z,0.00
2023-04-12T00:58:43.834Z,0.00
2023-04-12T00:59:43.792Z,0.00
2023-04-12T01:00:43.804Z,0.00
2023-04-12T01:01:43.835Z,0.00
2023-04-12T01:02:43.975Z,0.00
2023-04-12T01:03:43.878Z,0.00
2023-04-12T01:04:43.762Z,0.00
2023-04-12T01:05:43.732Z,0.00
2023-04-12T01:06:43.709Z,0.00
2023-04-12T01:07:43.699Z,0.00
2023-04-12T01:08:43.689Z,0.00
2023-04-12T01:09:43.677Z,0.00
2023-04-12T01:10:43.699Z,0.00
2023-04-12T01:11:43.669Z,0.00
2023-04-12T01:12:43.651Z,0.00
2023-04-12T01:13:43.633Z,0.00
2023-04-12T01:14:43.629Z,0.00
2023-04-12T01:15:43.612Z,0.00
2023-04-12T01:16:43.764Z,0.00
2023-04-12T01:17:43.643Z,0.00
2023-04-12T01:18:43.575Z,0.00
2023-04-12T01:19:43.573Z,0.00
2023-04-12T01:20:43.565Z,0.00
2023-04-12T01:21:43.558Z,0.00
2023-04-12T01:22:43.575Z,0.00
2023-04-12T01:23:43.522Z,0.00
2023-04-12T01:24:43.512Z,0.00
2023-04-12T01:25:43.500Z,0.00
2023-04-12T01:26:43.516Z,0.00
2023-04-12T01:27:43.488Z,0.00
2023-04-12T01:28:43.484Z,0.00
2023-04-12T01:29:43.462Z,0.00
2023-04-12T01:30:43.456Z,0.00
2023-04-12T01:31:43.496Z,0.00
2023-04-12T01:32:43.507Z,0.00
2023-04-12T01:33:43.412Z,0.00
2023-04-12T01:34:43.435Z,0.00
2023-04-12T01:35:43.514Z,0.00
2023-04-12T01:36:43.394Z,0.00
2023-04-12T01:37:43.369Z,0.00
2023-04-12T01:38:43.358Z,0.00
2023-04-12T01:39:43.349Z,0.00
2023-04-12T01:40:43.358Z,0.00
2023-04-12T01:41:43.357Z,0.00
2023-04-12T01:42:43.320Z,0.00
2023-04-12T01:43:43.308Z,0.00
2023-04-12T01:44:43.294Z,0.00
2023-04-12T01:45:43.367Z,0.00
2023-04-12T01:46:43.293Z,0.00
2023-04-12T01:47:43.330Z,0.00
2023-04-12T01:48:43.272Z,0.00
2023-04-12T01:49:43.243Z,0.00
2023-04-12T01:50:43.230Z,0.00
2023-04-12T01:51:43.226Z,0.00
2023-04-12T01:52:43.236Z,0.00
2023-04-12T01:53:43.213Z,0.00
2023-04-12T01:54:43.190Z,0.00
2023-04-12T01:55:43.177Z,0.00
2023-04-12T01:56:43.171Z,0.00
2023-04-12T01:57:43.156Z,0.00
2023-04-12T01:58:43.167Z,0.00
2023-04-12T01:59:43.167Z,0.00
2023-04-12T02:00:43.129Z,0.00
2023-04-12T02:01:43.468Z,0.00
2023-04-12T02:02:43.318Z,0.00
2023-04-12T02:03:43.261Z,0.00
2023-04-12T02:04:43.114Z,0.00
2023-04-12T02:05:43.092Z,0.00
2023-04-12T02:06:43.077Z,0.00
2023-04-12T02:07:43.063Z,0.00
2023-04-12T02:08:43.041Z,0.00
2023-04-12T02:09:43.042Z,0.00
2023-04-12T02:10:43.036Z,0.00
2023-04-12T02:11:43.005Z,0.00
2023-04-12T02:12:43.006Z,0.00
2023-04-12T02:13:42.990Z,0.00
2023-04-12T02:14:42.994Z,0.00
2023-04-12T02:15:42.964Z,0.00
2023-04-12T02:16:43.007Z,0.00
2023-04-12T02:17:42.987Z,0.00
2023-04-12T02:18:42.938Z,0.00
2023-04-12T02:19:42.933Z,0.00
2023-04-12T02:20:42.932Z,0.00
2023-04-12T02:21:42.913Z,0.00
2023-04-12T02:22:42.908Z,0.00
2023-04-12T02:23:42.878Z,0.00
2023-04-12T02:24:42.867Z,0.00
2023-04-12T02:25:42.870Z,0.00
2023-04-12T02:26:42.856Z,0.00
2023-04-12T02:27:42.845Z,0.00
2023-04-12T02:28:42.865Z,0.00
2023-04-12T02:29:42.820Z,0.00
2023-04-12T02:30:42.857Z,0.00
2023-04-12T02:31:42.797Z,0.00
2023-04-12T02:32:42.819Z,0.00
2023-04-12T02:33:42.766Z,0.00
2023-04-12T02:34:42.787Z,0.00
2023-04-12T02:35:42.792Z,0.00
2023-04-12T02:36:42.766Z,0.00
2023-04-12T02:37:42.725Z,0.00
2023-04-12T02:38:42.725Z,0.00
2023-04-12T02:39:42.709Z,0.00
2023-04-12T02:40:42.731Z,0.00
2023-04-12T02:41:42.685Z,0.00
2023-04-12T02:42:42.670Z,0.00
2023-04-12T02:43:42.679Z,0.00
2023-04-12T02:44:42.650Z,0.00
2023-04-12T02:45:42.673Z,0.00
2023-04-12T02:46:42.642Z,0.00
2023-04-12T02:47:42.639Z,0.00
2023-04-12T02:48:42.606Z,0.00
2023-04-12T02:49:42.604Z,0.00
2023-04-12T02:50:42.595Z,0.00
2023-04-12T02:51:42.574Z,0.00
2023-04-12T02:52:42.669Z,0.00
2023-04-12T02:53:42.551Z,0.00
2023-04-12T02:54:42.538Z,0.00
2023-04-12T02:55:42.542Z,0.00
2023-04-12T02:56:42.523Z,0.00
2023-04-12T02:57:42.519Z,0.00
2023-04-12T02:58:42.515Z,0.00
2023-04-12T02:59:42.492Z,0.00
2023-04-12T03:00:42.492Z,0.00
2023-04-12T03:01:42.518Z,0.00
2023-04-12T03:02:42.539Z,0.00
2023-04-12T03:03:42.536Z,0.00
2023-04-12T03:04:42.436Z,0.00
2023-04-12T03:05:42.421Z,0.00
2023-04-12T03:06:42.410Z,0.00
2023-04-12T03:07:42.415Z,0.00
2023-04-12T03:08:42.438Z,0.00
2023-04-12T03:09:42.395Z,0.00
2023-04-12T03:10:42.372Z,0.00
2023-04-12T03:11:42.360Z,0.00
2023-04-12T03:12:42.346Z,0.00
2023-04-12T03:13:42.336Z,0.00
2023-04-12T03:14:42.334Z,0.00
2023-04-12T03:15:42.344Z,0.00
2023-04-12T03:16:42.301Z,0.00
2023-04-12T03:17:42.328Z,0.00
2023-04-12T03:18:42.291Z,0.00
2023-04-12T03:19:42.270Z,0.00
2023-04-12T03:20:42.704Z,0.00
2023-04-12T03:21:42.278Z,0.00
2023-04-12T03:22:42.236Z,0.00
2023-04-12T03:23:42.234Z,0.00
2023-04-12T03:24:42.262Z,0.00
2023-04-12T03:25:42.208Z,0.00
2023-04-12T03:26:42.208Z,0.00
2023-04-12T03:27:42.206Z,0.00
2023-04-12T03:28:42.171Z,0.00
2023-04-12T03:29:42.165Z,0.00
2023-04-12T03:30:42.157Z,0.00
2023-04-12T03:31:42.281Z,0.00
2023-04-12T03:32:42.228Z,0.00
2023-04-12T03:33:42.147Z,0.00
2023-04-12T03:34:42.131Z,0.00
2023-04-12T03:35:42.131Z,0.00
2023-04-12T03:36:42.083Z,0.00
2023-04-12T03:37:42.075Z,0.00
2023-04-12T03:38:42.066Z,0.00
2023-04-12T03:39:42.084Z,0.00
2023-04-12T03:40:42.089Z,0.00
2023-04-12T03:41:42.029Z,0.00
2023-04-12T03:42:42.022Z,0.00
2023-04-12T03:43:42.007Z,0.00
2023-04-12T03:44:42.001Z,0.00
2023-04-12T03:45:42.023Z,0.00
2023-04-12T03:46:41.992Z,0.00
2023-04-12T03:47:42.039Z,0.00
2023-04-12T03:48:41.953Z,0.00
2023-04-12T03:49:41.948Z,0.00
2023-04-12T03:50:41.949Z,0.00
2023-04-12T03:51:41.950Z,0.00
2023-04-12T03:52:41.931Z,0.00
2023-04-12T03:53:41.901Z,0.00
2023-04-12T03:54:41.894Z,0.00
2023-04-12T03:55:41.915Z,0.00
2023-04-12T03:56:43.168Z,0.00
2023-04-12T03:57:41.896Z,0.00
2023-04-12T03:58:41.847Z,0.00
2023-04-12T03:59:41.850Z,0.00
2023-04-12T04:00:41.843Z,0.00
2023-04-12T04:01:41.883Z,0.00
2023-04-12T04:02:41.945Z,0.00
2023-04-12T04:03:41.938Z,0.00
2023-04-12T04:04:41.824Z,0.00
2023-04-12T04:05:41.793Z,0.00
2023-04-12T04:06:41.774Z,0.00
2023-04-12T04:07:41.752Z,0.00
2023-04-12T04:08:41.748Z,0.00
2023-04-12T04:09:41.773Z,0.00
2023-04-12T04:10:41.730Z,0.00
2023-04-12T04:11:41.708Z,4.00
2023-04-12T04:12:41.719Z,4.00
2023-04-12T04:13:41.691Z,4.00
2023-04-12T04:14:41.675Z,0.00
2023-04-12T04:15:41.690Z,4.00
2023-04-12T04:16:41.734Z,4.00
2023-04-12T04:17:41.696Z,4.00
2023-04-12T04:18:41.641Z,4.00
2023-04-12T04:19:41.642Z,8.00
2023-04-12T04:20:41.612Z,8.00
2023-04-12T04:21:41.622Z,8.00
2023-04-12T04:22:41.601Z,12.00
2023-04-12T04:23:41.582Z,12.00
2023-04-12T04:24:41.572Z,16.00
2023-04-12T04:25:41.564Z,20.00
2023-04-12T04:26:41.552Z,28.00
2023-04-12T04:27:41.576Z,36.00
2023-04-12T04:28:41.547Z,44.00
2023-04-12T04:29:41.517Z,52.00
2023-04-12T04:30:41.506Z,64.00
2023-04-12T04:31:41.554Z,76.00
2023-04-12T04:32:41.569Z,92.00
2023-04-12T04:33:41.508Z,104.00
2023-04-12T04:34:41.473Z,116.00
2023-04-12T04:35:41.484Z,140.00
2023-04-12T04:36:41.448Z,176.00
2023-04-12T04:37:41.432Z,208.00
2023-04-12T04:38:41.440Z,236.00
2023-04-12T04:39:41.427Z,256.00
2023-04-12T04:40:41.403Z,284.00
2023-04-12T04:41:41.631Z,336.00
2023-04-12T04:42:41.379Z,376.00
2023-04-12T04:43:41.371Z,424.00
2023-04-12T04:44:41.401Z,480.00
2023-04-12T04:45:41.444Z,560.00
2023-04-12T04:46:41.419Z,664.00
2023-04-12T04:47:41.408Z,740.00
2023-04-12T04:48:41.317Z,844.00
2023-04-12T04:49:41.332Z,952.00
2023-04-12T04:50:41.342Z,1044.00
2023-04-12T04:51:41.282Z,1120.00
2023-04-12T04:52:41.285Z,1212.00
2023-04-12T04:53:41.263Z,1352.00
2023-04-12T04:54:41.254Z,1512.00
2023-04-12T04:55:41.255Z,1736.00
2023-04-12T04:56:41.270Z,1984.00
2023-04-12T04:57:41.234Z,2056.00
2023-04-12T04:58:41.235Z,2132.00
2023-04-12T04:59:41.203Z,2168.00
2023-04-12T05:00:41.340Z,2180.00
2023-04-12T05:01:41.412Z,2132.00
2023-04-12T05:02:41.228Z,2144.00
2023-04-12T05:03:41.294Z,2352.00
2023-04-12T05:04:41.162Z,2580.00
2023-04-12T05:05:41.150Z,2612.00
2023-04-12T05:06:41.119Z,2612.00
2023-04-12T05:07:41.110Z,2656.00
2023-04-12T05:08:41.114Z,2700.00
2023-04-12T05:09:41.091Z,2748.00
2023-04-12T05:10:41.090Z,2792.00
2023-04-12T05:11:41.067Z,2804.00
2023-04-12T05:12:41.053Z,2840.00
2023-04-12T05:13:41.045Z,2824.00
2023-04-12T05:14:47.141Z,2772.00
2023-04-12T05:15:42.034Z,2736.00
2023-04-12T05:16:41.078Z,2736.00
2023-04-12T05:17:41.083Z,2708.00
2023-04-12T05:18:41.008Z,2652.00
2023-04-12T05:19:40.980Z,2616.00
2023-04-12T05:20:41.000Z,2588.00
2023-04-12T05:21:40.961Z,2568.00
2023-04-12T05:22:40.975Z,2536.00
2023-04-12T05:23:40.934Z,2488.00
2023-04-12T05:24:40.936Z,2444.00
2023-04-12T05:25:40.922Z,2416.00
2023-04-12T05:26:40.950Z,2452.00
2023-04-12T05:27:40.895Z,2544.00
2023-04-12T05:28:40.882Z,2700.00
2023-04-12T05:29:40.881Z,2960.00
2023-04-12T05:30:40.879Z,3300.00
2023-04-12T05:31:40.852Z,3744.00
2023-04-12T05:32:40.953Z,4276.00
2023-04-12T05:33:40.826Z,4808.00
2023-04-12T05:34:40.819Z,5404.00
2023-04-12T05:35:40.839Z,6084.00
2023-04-12T05:36:40.806Z,6820.00
2023-04-12T05:37:40.788Z,7332.00
2023-04-12T05:38:40.794Z,8180.00
2023-04-12T05:39:40.773Z,8944.00
2023-04-12T05:40:40.751Z,9560.00
2023-04-12T05:41:40.748Z,9660.00
2023-04-12T05:42:40.741Z,9512.00
2023-04-12T05:43:40.722Z,9096.00
2023-04-12T05:44:40.742Z,8452.00
2023-04-12T05:45:40.735Z,7836.00
2023-04-12T05:46:40.864Z,7520.00
2023-04-12T05:47:40.720Z,7500.00
2023-04-12T05:48:40.698Z,7324.00
2023-04-12T05:49:40.657Z,7332.00
2023-04-12T05:50:40.671Z,7164.00
2023-04-12T05:51:41.784Z,7328.00
2023-04-12T05:52:40.633Z,7788.00
2023-04-12T05:53:40.618Z,8228.00
2023-04-12T05:54:40.612Z,8548.00
2023-04-12T05:55:40.594Z,8796.00
2023-04-12T05:56:40.610Z,9012.00
2023-04-12T05:57:40.586Z,9148.00
2023-04-12T05:58:40.569Z,9252.00
2023-04-12T05:59:40.552Z,9360.00
2023-04-12T06:00:40.539Z,9488.00
2023-04-12T06:01:40.545Z,9588.00
2023-04-12T06:02:40.727Z,9668.00
2023-04-12T06:03:40.680Z,9724.00
2023-04-12T06:04:50.103Z,9792.00
2023-04-12T06:05:41.678Z,9912.00
2023-04-12T06:06:40.483Z,10240.00
2023-04-12T06:07:40.469Z,10520.00
2023-04-12T06:08:40.481Z,11376.00
2023-04-12T06:09:40.463Z,12040.00
2023-04-12T06:10:40.444Z,12852.00
2023-04-12T06:11:40.423Z,13756.00
2023-04-12T06:12:40.414Z,14168.00
2023-04-12T06:13:40.402Z,14916.00
2023-04-12T06:14:40.430Z,15516.00
2023-04-12T06:15:40.408Z,17376.00
2023-04-12T06:16:41.946Z,17600.00
2023-04-12T06:17:40.363Z,17632.00
2023-04-12T06:18:40.363Z,16768.00
2023-04-12T06:19:40.464Z,16384.00
2023-04-12T06:20:40.370Z,15948.00
2023-04-12T06:21:40.315Z,15384.00
2023-04-12T06:22:40.310Z,15132.00
2023-04-12T06:23:40.295Z,14608.00
2023-04-12T06:24:40.309Z,13780.00
2023-04-12T06:25:40.280Z,12472.00
2023-04-12T06:26:40.472Z,11584.00
2023-04-12T06:27:40.257Z,10576.00
2023-04-12T06:28:40.269Z,9672.00
2023-04-12T06:29:40.239Z,8788.00
2023-04-12T06:30:40.224Z,8164.00
2023-04-12T06:31:40.270Z,7840.00
2023-04-12T06:32:40.256Z,7564.00
2023-04-12T06:33:40.192Z,7816.00
2023-04-12T06:34:40.171Z,9012.00
2023-04-12T06:35:40.185Z,10812.00
2023-04-12T06:36:40.193Z,12704.00
2023-04-12T06:37:40.149Z,14692.00
2023-04-12T06:38:40.195Z,16168.00
2023-04-12T06:39:40.118Z,16140.00
2023-04-12T06:40:40.102Z,15856.00
2023-04-12T06:41:40.095Z,15716.00
2023-04-12T06:42:40.089Z,15560.00
2023-04-12T06:43:40.088Z,15240.00
2023-04-12T06:44:40.078Z,15536.00
2023-04-12T06:45:40.149Z,16456.00
2023-04-12T06:46:40.069Z,18240.00
2023-04-12T06:47:40.086Z,20000.00
2023-04-12T06:48:41.305Z,20384.00
2023-04-12T06:49:40.045Z,21216.00
2023-04-12T06:50:40.044Z,20448.00
2023-04-12T06:51:40.003Z,20992.00
2023-04-12T06:52:40.113Z,23008.00
2023-04-12T06:53:39.960Z,26528.00
2023-04-12T06:54:39.969Z,26304.00
2023-04-12T06:55:39.957Z,23296.00
2023-04-12T06:56:39.970Z,23424.00
2023-04-12T06:57:39.914Z,23552.00
2023-04-12T06:58:39.908Z,31776.00
2023-04-12T06:59:39.906Z,21248.00
2023-04-12T07:00:39.920Z,21472.00
2023-04-12T07:01:41.333Z,20160.00
2023-04-12T07:02:40.077Z,20416.00
2023-04-12T07:03:39.929Z,22432.00
2023-04-12T07:04:39.846Z,25376.00
2023-04-12T07:05:39.842Z,51552.00
2023-04-12T07:06:39.826Z,32736.00
2023-04-12T07:07:39.816Z,32896.00
2023-04-12T07:08:39.825Z,28992.00
2023-04-12T07:09:39.791Z,26720.00
2023-04-12T07:10:39.786Z,24800.00
2023-04-12T07:11:39.779Z,25888.00
2023-04-12T07:12:39.764Z,37408.00
2023-04-12T07:13:39.748Z,29504.00
2023-04-12T07:14:39.751Z,30080.00
2023-04-12T07:15:39.725Z,29440.00
2023-04-12T07:16:39.751Z,28384.00
2023-04-12T07:17:39.717Z,29952.00
2023-04-12T07:18:39.699Z,56672.00
2023-04-12T07:19:39.687Z,31392.00
2023-04-12T07:20:39.692Z,52800.00
2023-04-12T07:21:39.662Z,84224.00
2023-04-12T07:22:39.674Z,86496.00
2023-04-12T07:23:39.655Z,45504.00
2023-04-12T07:24:39.705Z,44352.00
2023-04-12T07:25:39.629Z,30368.00
2023-04-12T07:26:39.673Z,31424.00
2023-04-12T07:27:39.600Z,30912.00
2023-04-12T07:28:39.585Z,31200.00
2023-04-12T07:29:39.573Z,27424.00
2023-04-12T07:30:39.565Z,23584.00
2023-04-12T07:31:39.659Z,30464.00
2023-04-12T07:32:39.657Z,25504.00
2023-04-12T07:33:42.252Z,26400.00
2023-04-12T07:34:39.591Z,25184.00
2023-04-12T07:35:39.549Z,23104.00
2023-04-12T07:36:39.502Z,19456.00
2023-04-12T07:37:39.505Z,17664.00
2023-04-12T07:38:39.507Z,16484.00
2023-04-12T07:39:39.495Z,17760.00
2023-04-12T07:40:39.487Z,20256.00
2023-04-12T07:41:39.446Z,21824.00
2023-04-12T07:42:39.450Z,24128.00
2023-04-12T07:43:39.425Z,25312.00
2023-04-12T07:44:39.430Z,25152.00
2023-04-12T07:45:39.445Z,29216.00
2023-04-12T07:46:39.396Z,29856.00
2023-04-12T07:47:39.442Z,44960.00
2023-04-12T07:48:39.383Z,25504.00
2023-04-12T07:49:39.392Z,20864.00
2023-04-12T07:50:39.391Z,20928.00
2023-04-12T07:51:39.341Z,21440.00
2023-04-12T07:52:39.340Z,25120.00
2023-04-12T07:53:39.332Z,21088.00
2023-04-12T07:54:39.306Z,26464.00
2023-04-12T07:55:39.296Z,63072.00
2023-04-12T07:56:39.336Z,53216.00
2023-04-12T07:57:39.277Z,34848.00
2023-04-12T07:58:39.264Z,34016.00
2023-04-12T07:59:39.258Z,32704.00
2023-04-12T08:00:39.242Z,31584.00
2023-04-12T08:01:39.263Z,34464.00
2023-04-12T08:02:39.385Z,41600.00
2023-04-12T08:03:39.300Z,35200.00
2023-04-12T08:04:39.204Z,51520.00
2023-04-12T08:05:39.205Z,108896.00
2023-04-12T08:06:39.180Z,111552.00
2023-04-12T08:07:39.180Z,63200.00
2023-04-12T08:08:39.185Z,110784.00
2023-04-12T08:09:39.143Z,37504.00
2023-04-12T08:10:39.136Z,45472.00
2023-04-12T08:11:39.120Z,36992.00
2023-04-12T08:12:39.139Z,39776.00
2023-04-12T08:13:39.138Z,27328.00
2023-04-12T08:14:39.830Z,78688.00
2023-04-12T08:15:39.101Z,22720.00
2023-04-12T08:16:39.078Z,25856.00
2023-04-12T08:17:39.105Z,127520.00
2023-04-12T08:18:39.049Z,126784.00
2023-04-12T08:19:39.035Z,24864.00
2023-04-12T08:20:39.039Z,22816.00
2023-04-12T08:21:39.026Z,31936.00
2023-04-12T08:22:39.033Z,98720.00
2023-04-12T08:23:38.992Z,120736.00
2023-04-12T08:24:38.982Z,37440.00
2023-04-12T08:25:38.974Z,32928.00
2023-04-12T08:26:38.981Z,128128.00
2023-04-12T08:27:38.948Z,137280.00
2023-04-12T08:28:39.863Z,29184.00
2023-04-12T08:29:38.932Z,24992.00
2023-04-12T08:30:38.920Z,92256.00
2023-04-12T08:31:38.966Z,104608.00
2023-04-12T08:32:38.940Z,119456.00
2023-04-12T08:33:38.885Z,93824.00
2023-04-12T08:34:38.876Z,90272.00
2023-04-12T08:35:38.906Z,41792.00
2023-04-12T08:36:38.850Z,128288.00
2023-04-12T08:37:38.945Z,121696.00
2023-04-12T08:38:45.483Z,121568.00
2023-04-12T08:39:39.818Z,115968.00
2023-04-12T08:40:38.806Z,122176.00
2023-04-12T08:41:39.240Z,125280.00
2023-04-12T08:42:38.793Z,55968.00
2023-04-12T08:43:38.785Z,97216.00
2023-04-12T08:44:38.821Z,53632.00
2023-04-12T08:45:38.759Z,133344.00
2023-04-12T08:46:38.768Z,70208.00
2023-04-12T08:47:38.779Z,50304.00
2023-04-12T08:48:38.756Z,47360.00
2023-04-12T08:49:38.720Z,55296.00
2023-04-12T08:50:38.716Z,37600.00
2023-04-12T08:51:38.699Z,39104.00
2023-04-12T08:52:38.699Z,41024.00
2023-04-12T08:53:38.679Z,44352.00
2023-04-12T08:54:38.670Z,34112.00
2023-04-12T08:55:38.657Z,35392.00
2023-04-12T08:56:38.649Z,33952.00
2023-04-12T08:57:38.662Z,31904.00
2023-04-12T08:58:38.613Z,31648.00
2023-04-12T08:59:38.602Z,32064.00
2023-04-12T09:00:38.607Z,31936.00
2023-04-12T09:01:38.652Z,31424.00
2023-04-12T09:02:38.837Z,29664.00
2023-04-12T09:03:38.994Z,27424.00
2023-04-12T09:04:38.707Z,26432.00
2023-04-12T09:05:38.536Z,27136.00
2023-04-12T09:06:38.527Z,25408.00
2023-04-12T09:07:38.518Z,26016.00
2023-04-12T09:08:38.530Z,25696.00
2023-04-12T09:09:38.503Z,25664.00
2023-04-12T09:10:38.660Z,26432.00
2023-04-12T09:11:38.482Z,25952.00
2023-04-12T09:12:38.462Z,25056.00
2023-04-12T09:13:38.462Z,24320.00
2023-04-12T09:14:38.454Z,23808.00
2023-04-12T09:15:38.428Z,23232.00
2023-04-12T09:16:38.499Z,23296.00
2023-04-12T09:17:38.447Z,23936.00
2023-04-12T09:18:38.400Z,25696.00
2023-04-12T09:19:38.398Z,26944.00
2023-04-12T09:20:38.393Z,25504.00
2023-04-12T09:21:38.368Z,25408.00
2023-04-12T09:22:38.375Z,26432.00
2023-04-12T09:23:38.376Z,25664.00
2023-04-12T09:24:38.328Z,23872.00
2023-04-12T09:25:38.318Z,23456.00
2023-04-12T09:26:38.327Z,25024.00
2023-04-12T09:27:38.308Z,29376.00
2023-04-12T09:28:38.294Z,34912.00
2023-04-12T09:29:38.286Z,46208.00
2023-04-12T09:30:38.275Z,45440.00
2023-04-12T09:31:38.280Z,42112.00
2023-04-12T09:32:38.268Z,38624.00
2023-04-12T09:33:38.245Z,42912.00
2023-04-12T09:34:38.244Z,62848.00
2023-04-12T09:35:38.310Z,55488.00
2023-04-12T09:36:38.196Z,67808.00
2023-04-12T09:37:38.204Z,54304.00
2023-04-12T09:38:38.186Z,62080.00
2023-04-12T09:39:40.170Z,76480.00
2023-04-12T09:40:38.152Z,54816.00
2023-04-12T09:41:38.163Z,67744.00
2023-04-12T09:42:38.132Z,60224.00
2023-04-12T09:43:38.139Z,57120.00
2023-04-12T09:44:38.130Z,60992.00
2023-04-12T09:45:38.120Z,67776.00
2023-04-12T09:46:38.119Z,63136.00
2023-04-12T09:47:38.152Z,55872.00
2023-04-12T09:48:38.092Z,48352.00
2023-04-12T09:49:38.053Z,43072.00
2023-04-12T09:50:38.090Z,40448.00
2023-04-12T09:51:38.040Z,39744.00
2023-04-12T09:52:38.045Z,42368.00
2023-04-12T09:53:38.037Z,41888.00
2023-04-12T09:54:38.009Z,39040.00
2023-04-12T09:55:38.007Z,39136.00
2023-04-12T09:56:37.995Z,39392.00
2023-04-12T09:57:37.968Z,38592.00
2023-04-12T09:58:37.954Z,37120.00
2023-04-12T09:59:37.943Z,34464.00
2023-04-12T10:00:37.932Z,31456.00
2023-04-12T10:01:38.008Z,29472.00
2023-04-12T10:02:38.024Z,27648.00
2023-04-12T10:03:38.047Z,26816.00
2023-04-12T10:04:38.015Z,26496.00
2023-04-12T10:05:37.987Z,26304.00
2023-04-12T10:06:37.958Z,26048.00
2023-04-12T10:07:37.879Z,26752.00
2023-04-12T10:08:37.867Z,27168.00
2023-04-12T10:09:37.838Z,26304.00
2023-04-12T10:10:37.834Z,24320.00
2023-04-12T10:11:37.814Z,22880.00
2023-04-12T10:12:37.811Z,22400.00
2023-04-12T10:13:37.792Z,22592.00
2023-04-12T10:14:37.805Z,23264.00
2023-04-12T10:15:37.796Z,23520.00
2023-04-12T10:16:37.919Z,22848.00
2023-04-12T10:17:37.810Z,21440.00
2023-04-12T10:18:37.741Z,20416.00
2023-04-12T10:19:37.725Z,19616.00
2023-04-12T10:20:37.821Z,18432.00
2023-04-12T10:21:37.704Z,17504.00
2023-04-12T10:22:37.731Z,16616.00
2023-04-12T10:23:37.725Z,15708.00
2023-04-12T10:24:37.668Z,15232.00
2023-04-12T10:25:37.665Z,15004.00
2023-04-12T10:26:37.676Z,14944.00
2023-04-12T10:27:37.638Z,15284.00
2023-04-12T10:28:37.668Z,15188.00
2023-04-12T10:29:37.632Z,14472.00
2023-04-12T10:30:37.608Z,13700.00
2023-04-12T10:31:37.725Z,13352.00
2023-04-12T10:32:37.730Z,13688.00
2023-04-12T10:33:37.581Z,14472.00
2023-04-12T10:34:37.566Z,15564.00
2023-04-12T10:35:37.596Z,16500.00
2023-04-12T10:36:37.700Z,17472.00
2023-04-12T10:37:37.551Z,18720.00
2023-04-12T10:38:37.546Z,19808.00
2023-04-12T10:39:37.527Z,19840.00
2023-04-12T10:40:37.515Z,18624.00
2023-04-12T10:41:37.506Z,17728.00
2023-04-12T10:42:37.496Z,17152.00
2023-04-12T10:43:37.485Z,17184.00
2023-04-12T10:44:37.500Z,17760.00
2023-04-12T10:45:37.449Z,18944.00
2023-04-12T10:46:37.570Z,20288.00
2023-04-12T10:47:37.450Z,20928.00
2023-04-12T10:48:37.416Z,21344.00
2023-04-12T10:49:37.450Z,21888.00
2023-04-12T10:50:37.411Z,22240.00
2023-04-12T10:51:37.386Z,21696.00
2023-04-12T10:52:37.409Z,21248.00
2023-04-12T10:53:37.366Z,20448.00
2023-04-12T10:54:37.347Z,19616.00
2023-04-12T10:55:37.368Z,19008.00
2023-04-12T10:56:37.349Z,19232.00
2023-04-12T10:57:37.321Z,19904.00
2023-04-12T10:58:37.307Z,21440.00
2023-04-12T10:59:47.370Z,22976.00
2023-04-12T11:00:38.348Z,23520.00
2023-04-12T11:01:38.884Z,22688.00
2023-04-12T11:02:37.398Z,21312.00
2023-04-12T11:03:37.351Z,20416.00
2023-04-12T11:04:37.450Z,20512.00
2023-04-12T11:05:37.271Z,21184.00
2023-04-12T11:06:37.249Z,22976.00
2023-04-12T11:07:37.222Z,23872.00
2023-04-12T11:08:37.246Z,23744.00
2023-04-12T11:09:37.221Z,23648.00
2023-04-12T11:10:37.184Z,24448.00
2023-04-12T11:11:37.198Z,24992.00
2023-04-12T11:12:37.161Z,25248.00
2023-04-12T11:13:37.165Z,25344.00
2023-04-12T11:14:37.143Z,25504.00
2023-04-12T11:15:37.162Z,25184.00
2023-04-12T11:16:37.209Z,24640.00
2023-04-12T11:17:37.886Z,24128.00
2023-04-12T11:18:37.144Z,23648.00
2023-04-12T11:19:37.088Z,23296.00
2023-04-12T11:20:37.092Z,23680.00
2023-04-12T11:21:37.052Z,25056.00
2023-04-12T11:22:37.049Z,26272.00
2023-04-12T11:23:37.036Z,27712.00
2023-04-12T11:24:37.044Z,28512.00
2023-04-12T11:25:37.061Z,28768.00
2023-04-12T11:26:37.012Z,27776.00
2023-04-12T11:27:37.003Z,26080.00
2023-04-12T11:28:36.984Z,25184.00
2023-04-12T11:29:36.976Z,24896.00
2023-04-12T11:30:36.961Z,24192.00
2023-04-12T11:31:36.987Z,24352.00
2023-04-12T11:32:37.049Z,24032.00
2023-04-12T11:33:36.998Z,24192.00
2023-04-12T11:34:36.920Z,25152.00
2023-04-12T11:35:36.906Z,24704.00
2023-04-12T11:36:36.895Z,24768.00
2023-04-12T11:37:36.894Z,24448.00
2023-04-12T11:38:36.873Z,23904.00
2023-04-12T11:39:36.874Z,23168.00
2023-04-12T11:40:36.873Z,22304.00
2023-04-12T11:41:36.869Z,21152.00
2023-04-12T11:42:36.828Z,20352.00
2023-04-12T11:43:36.838Z,20224.00
2023-04-12T11:44:48.264Z,20160.00
2023-04-12T11:45:37.831Z,20768.00
2023-04-12T11:46:36.787Z,22304.00
2023-04-12T11:47:36.815Z,22528.00
2023-04-12T11:48:36.764Z,22304.00
2023-04-12T11:49:36.771Z,23552.00
2023-04-12T11:50:36.758Z,26976.00
2023-04-12T11:51:36.737Z,30944.00
2023-04-12T11:52:36.721Z,31840.00
2023-04-12T11:53:36.710Z,30528.00
2023-04-12T11:54:36.717Z,29824.00
2023-04-12T11:55:36.722Z,30656.00
2023-04-12T11:56:36.696Z,31744.00
2023-04-12T11:57:36.679Z,32160.00
2023-04-12T11:58:36.656Z,32608.00
2023-04-12T11:59:36.641Z,35136.00
2023-04-12T12:00:36.653Z,35232.00
2023-04-12T12:01:36.642Z,35840.00
2023-04-12T12:02:43.748Z,45824.00
2023-04-12T12:03:37.832Z,39072.00
2023-04-12T12:04:36.785Z,41440.00
2023-04-12T12:05:37.143Z,55232.00
2023-04-12T12:06:37.145Z,38304.00
2023-04-12T12:07:36.559Z,39008.00
2023-04-12T12:08:36.540Z,37536.00
2023-04-12T12:09:36.531Z,37280.00
2023-04-12T12:10:44.361Z,36928.00
2023-04-12T12:11:37.502Z,38272.00
2023-04-12T12:12:36.631Z,42528.00
2023-04-12T12:13:36.494Z,42560.00
2023-04-12T12:14:36.486Z,41568.00
2023-04-12T12:15:36.588Z,42880.00
2023-04-12T12:16:36.457Z,61536.00
2023-04-12T12:17:36.472Z,75072.00
2023-04-12T12:18:36.437Z,63264.00
2023-04-12T12:19:36.441Z,57024.00